createdAt,value
2023-03-26T00:00:35.196Z,8.81
2023-03-26T00:03:10.204Z,8.81
2023-03-26T00:05:45.717Z,8.83
2023-03-26T00:08:20.083Z,8.84
2023-03-26T00:10:52.907Z,8.84
2023-03-26T00:13:26.421Z,8.85
2023-03-26T00:15:59.763Z,8.87
2023-03-26T00:18:34.829Z,8.90
2023-03-26T00:21:10.752Z,8.87
2023-03-26T00:23:44.073Z,8.75
2023-03-26T00:26:19.124Z,8.73
2023-03-26T00:28:53.291Z,8.74
2023-03-26T00:31:26.476Z,8.73
2023-03-26T00:34:01.783Z,8.73
2023-03-26T00:36:36.366Z,8.74
2023-03-26T00:39:10.337Z,8.75
2023-03-26T00:41:44.525Z,8.75
2023-03-26T00:44:17.723Z,8.72
2023-03-26T00:46:51.144Z,8.74
2023-03-26T00:49:25.658Z,8.80
2023-03-26T00:51:59.672Z,8.82
2023-03-26T00:54:33.169Z,8.83
2023-03-26T00:57:07.077Z,8.85
2023-03-26T00:59:40.734Z,8.84
2023-03-26T01:02:18.619Z,8.80
2023-03-26T01:05:00.750Z,8.75
2023-03-26T01:07:35.477Z,8.72
2023-03-26T01:10:09.294Z,8.72
2023-03-26T01:12:42.520Z,8.74
2023-03-26T01:15:15.574Z,8.71
2023-03-26T01:17:51.129Z,8.69
2023-03-26T01:20:27.854Z,8.73
2023-03-26T01:23:05.462Z,8.75
2023-03-26T01:25:42.283Z,8.75
2023-03-26T01:28:17.076Z,8.71
2023-03-26T01:31:03.399Z,8.66
2023-03-26T01:33:47.148Z,8.67
2023-03-26T01:36:32.659Z,8.69
2023-03-26T01:39:33.785Z,8.72
2023-03-26T01:42:19.838Z,8.69
2023-03-26T01:44:57.998Z,8.68
2023-03-26T01:47:31.881Z,8.69
2023-03-26T01:50:04.916Z,8.65
2023-03-26T01:52:37.874Z,8.66
2023-03-26T01:55:12.046Z,8.68
2023-03-26T01:58:11.013Z,8.69
2023-03-26T02:01:09.662Z,8.69
2023-03-26T02:03:56.496Z,8.68
2023-03-26T02:06:34.632Z,8.65
2023-03-26T02:09:10.404Z,8.64
2023-03-26T02:11:44.617Z,8.61
2023-03-26T02:14:18.141Z,8.58
2023-03-26T02:16:51.713Z,8.60
2023-03-26T02:19:25.703Z,8.64
2023-03-26T02:22:00.255Z,8.65
2023-03-26T02:24:34.402Z,8.65
2023-03-26T02:27:12.663Z,8.63
2023-03-26T02:29:45.509Z,8.66
2023-03-26T02:32:19.781Z,8.71
2023-03-26T02:34:52.842Z,8.74
2023-03-26T02:37:26.359Z,8.69
2023-03-26T02:40:01.317Z,8.72
2023-03-26T02:42:36.184Z,8.72
2023-03-26T02:45:09.895Z,8.73
2023-03-26T02:47:54.823Z,8.73
2023-03-26T02:50:46.406Z,8.69
2023-03-26T02:53:28.631Z,8.69
2023-03-26T02:56:03.286Z,8.66
2023-03-26T02:58:38.228Z,8.64
2023-03-26T03:01:13.328Z,8.66
2023-03-26T03:03:49.210Z,8.65
2023-03-26T03:06:26.659Z,8.63
2023-03-26T03:09:03.023Z,8.60
2023-03-26T03:11:43.708Z,8.60
2023-03-26T03:14:17.105Z,8.57
2023-03-26T03:16:50.112Z,8.53
2023-03-26T03:19:23.111Z,8.49
2023-03-26T03:21:56.838Z,8.51
2023-03-26T03:24:32.082Z,8.52
2023-03-26T03:27:05.582Z,8.56
2023-03-26T03:29:41.634Z,8.55
2023-03-26T03:32:16.335Z,8.50
2023-03-26T03:34:52.073Z,8.48
2023-03-26T03:37:25.614Z,8.49
2023-03-26T03:39:59.912Z,8.52
2023-03-26T03:42:35.717Z,8.55
2023-03-26T03:45:09.710Z,8.58
2023-03-26T03:48:01.021Z,8.58
2023-03-26T03:50:36.248Z,8.60
2023-03-26T03:53:15.024Z,8.58
2023-03-26T03:55:54.471Z,8.58
2023-03-26T03:58:31.316Z,8.56
2023-03-26T04:01:06.508Z,8.52
2023-03-26T04:03:50.363Z,8.53
2023-03-26T04:06:24.953Z,8.54
2023-03-26T04:08:58.962Z,8.57
2023-03-26T04:11:32.448Z,8.58
2023-03-26T04:14:24.016Z,8.57
2023-03-26T04:17:02.582Z,8.56
2023-03-26T04:19:37.712Z,8.50
2023-03-26T04:22:12.418Z,8.49
2023-03-26T04:24:48.993Z,8.51
2023-03-26T04:27:28.893Z,8.55
2023-03-26T04:30:05.922Z,8.59
2023-03-26T04:32:40.662Z,8.61
2023-03-26T04:35:17.233Z,8.64
2023-03-26T04:37:53.234Z,8.65
2023-03-26T04:40:29.732Z,8.62
2023-03-26T04:43:04.789Z,8.58
2023-03-26T04:45:39.752Z,8.57
2023-03-26T04:48:16.538Z,8.50
2023-03-26T04:50:50.641Z,8.43
2023-03-26T04:53:26.295Z,8.42
2023-03-26T04:56:43.631Z,8.50
2023-03-26T04:59:37.281Z,8.57
2023-03-26T05:02:15.798Z,8.63
2023-03-26T05:04:53.799Z,8.71
2023-03-26T05:07:26.801Z,8.77
2023-03-26T05:10:03.988Z,8.77
2023-03-26T05:12:46.003Z,8.78
2023-03-26T05:15:20.923Z,8.78
2023-03-26T05:18:00.571Z,8.81
2023-03-26T05:20:46.645Z,8.74
2023-03-26T05:23:21.160Z,8.66
2023-03-26T05:25:56.234Z,8.65
2023-03-26T05:28:29.835Z,8.71
2023-03-26T05:31:08.619Z,8.73
2023-03-26T05:33:43.727Z,8.76
2023-03-26T05:36:19.407Z,8.82
2023-03-26T05:38:54.320Z,8.88
2023-03-26T05:41:32.041Z,8.92
2023-03-26T05:44:05.311Z,8.97
2023-03-26T05:46:39.221Z,9.02
2023-03-26T05:49:13.581Z,9.06
2023-03-26T05:51:47.257Z,9.12
2023-03-26T05:54:22.579Z,9.19
2023-03-26T05:57:14.132Z,9.27
2023-03-26T06:00:00.790Z,9.29
2023-03-26T06:02:52.444Z,9.27
2023-03-26T06:05:40.629Z,9.25
2023-03-26T06:08:16.816Z,9.28
2023-03-26T06:10:52.059Z,9.26
2023-03-26T06:13:25.489Z,9.28
2023-03-26T06:15:59.862Z,9.29
2023-03-26T06:18:37.889Z,9.31
2023-03-26T06:21:28.009Z,9.37
2023-03-26T06:24:02.613Z,9.45
2023-03-26T06:26:40.111Z,9.48
2023-03-26T06:29:28.312Z,9.54
2023-03-26T06:32:18.440Z,9.64
2023-03-26T06:34:42.793Z,9.75
2023-03-26T06:37:16.631Z,9.86
2023-03-26T06:39:50.979Z,9.95
2023-03-26T06:42:32.144Z,10.04
2023-03-26T06:45:07.282Z,10.12
2023-03-26T06:47:39.544Z,10.20
2023-03-26T06:50:31.880Z,10.27
2023-03-26T06:53:15.998Z,10.26
2023-03-26T06:56:00.312Z,10.31
2023-03-26T06:58:33.642Z,10.45
2023-03-26T07:01:26.654Z,10.61
2023-03-26T07:04:17.501Z,10.76
2023-03-26T07:07:08.445Z,10.90
2023-03-26T07:09:59.598Z,11.02
2023-03-26T07:12:49.874Z,11.11
2023-03-26T07:15:30.060Z,11.16
2023-03-26T07:18:11.741Z,11.16
2023-03-26T07:20:48.835Z,11.26
2023-03-26T07:23:24.382Z,11.27
2023-03-26T07:26:00.057Z,11.34
2023-03-26T07:29:04.780Z,11.37
2023-03-26T07:32:00.628Z,11.41
2023-03-26T07:34:56.454Z,11.48
2023-03-26T07:38:07.369Z,11.49
2023-03-26T07:41:11.153Z,11.51
2023-03-26T07:44:05.891Z,11.64
2023-03-26T07:46:52.147Z,11.75
2023-03-26T07:49:25.876Z,11.85
2023-03-26T07:52:16.842Z,11.98
2023-03-26T07:54:59.642Z,12.10
2023-03-26T07:58:12.322Z,12.21
2023-03-26T08:01:05.024Z,12.36
2023-03-26T08:04:00.834Z,12.44
2023-03-26T08:06:39.764Z,12.35
2023-03-26T08:09:58.240Z,12.17
2023-03-26T08:13:21.562Z,12.08
2023-03-26T08:16:04.640Z,12.04
2023-03-26T08:19:25.734Z,12.09
2023-03-26T08:22:17.097Z,12.13
2023-03-26T08:25:33.737Z,12.23
2023-03-26T08:28:35.393Z,12.36
2023-03-26T08:31:12.910Z,12.55
2023-03-26T08:33:46.132Z,12.69
2023-03-26T08:36:19.191Z,12.70
2023-03-26T08:38:52.910Z,12.75
2023-03-26T08:41:52.497Z,12.91
2023-03-26T08:44:50.648Z,13.00
2023-03-26T08:47:59.428Z,12.98
2023-03-26T08:50:59.833Z,12.96
2023-03-26T08:54:10.679Z,12.95
2023-03-26T08:57:16.167Z,12.83
2023-03-26T09:00:15.943Z,12.73
2023-03-26T09:03:25.316Z,12.59
2023-03-26T09:06:38.134Z,12.46
2023-03-26T09:09:36.553Z,12.47
2023-03-26T09:12:49.857Z,12.53
2023-03-26T09:15:48.576Z,12.62
2023-03-26T09:18:54.466Z,12.73
2023-03-26T09:22:02.459Z,12.80
2023-03-26T09:24:58.399Z,12.90
2023-03-26T09:27:55.921Z,13.07
2023-03-26T09:31:07.412Z,13.25
2023-03-26T09:33:55.778Z,13.46
2023-03-26T09:36:55.884Z,13.60
2023-03-26T09:39:38.091Z,13.74
2023-03-26T09:42:20.992Z,13.90
2023-03-26T09:45:06.447Z,14.02
2023-03-26T09:47:55.875Z,14.01
2023-03-26T09:50:45.524Z,13.88
2023-03-26T09:53:32.221Z,13.83
2023-03-26T09:56:18.802Z,13.86
2023-03-26T09:59:07.100Z,13.91
2023-03-26T10:02:20.512Z,13.89
2023-03-26T10:05:17.996Z,13.85
2023-03-26T10:08:04.507Z,13.87
2023-03-26T10:10:44.718Z,13.90
2023-03-26T10:13:28.308Z,13.93
2023-03-26T10:16:35.296Z,13.91
2023-03-26T10:19:34.463Z,13.90
2023-03-26T10:22:30.962Z,13.88
2023-03-26T10:25:34.099Z,13.88
2023-03-26T10:28:39.764Z,13.89
2023-03-26T10:31:37.652Z,13.93
2023-03-26T10:34:29.200Z,13.99
2023-03-26T10:37:13.487Z,14.00
2023-03-26T10:40:10.017Z,14.05
2023-03-26T10:42:54.051Z,14.10
2023-03-26T10:46:02.381Z,14.19
2023-03-26T10:48:55.048Z,14.27
2023-03-26T10:52:09.544Z,14.37
2023-03-26T10:55:18.402Z,14.44
2023-03-26T10:58:06.265Z,14.47
2023-03-26T11:00:47.420Z,14.54
2023-03-26T11:03:49.374Z,14.60
2023-03-26T11:06:41.848Z,14.66
2023-03-26T11:09:47.343Z,14.74
2023-03-26T11:12:40.205Z,14.75
2023-03-26T11:15:41.707Z,14.73
2023-03-26T11:18:38.716Z,14.71
2023-03-26T11:21:41.906Z,14.63
2023-03-26T11:24:28.951Z,14.52
2023-03-26T11:27:14.936Z,14.55
2023-03-26T11:30:04.898Z,14.59
2023-03-26T11:32:46.560Z,14.58
2023-03-26T11:35:41.961Z,14.63
2023-03-26T11:38:42.219Z,14.68
2023-03-26T11:41:26.370Z,14.77
2023-03-26T11:44:34.014Z,14.77
2023-03-26T11:47:12.463Z,14.82
2023-03-26T11:49:48.212Z,14.87
2023-03-26T11:52:21.909Z,14.93
2023-03-26T11:54:56.565Z,15.01
2023-03-26T11:57:33.545Z,15.07
2023-03-26T12:00:20.966Z,15.06
2023-03-26T12:02:59.998Z,14.98
2023-03-26T12:05:37.604Z,14.86
2023-03-26T12:08:34.287Z,14.87
2023-03-26T12:11:11.937Z,14.79
2023-03-26T12:13:58.631Z,14.65
2023-03-26T12:16:32.679Z,14.58
2023-03-26T12:19:21.165Z,14.58
2023-03-26T12:21:54.909Z,14.57
2023-03-26T12:24:34.185Z,14.54
2023-03-26T12:27:29.027Z,14.50
2023-03-26T12:30:12.596Z,14.41
2023-03-26T12:32:47.362Z,14.33
2023-03-26T12:35:30.335Z,14.30
2023-03-26T12:38:24.120Z,14.27
2023-03-26T12:41:08.200Z,14.28
2023-03-26T12:44:55.268Z,14.23
2023-03-26T12:47:58.376Z,14.18
2023-03-26T12:49:13.299Z,14.09
2023-03-26T12:52:13.307Z,14.09
2023-03-26T12:54:53.913Z,14.08
2023-03-26T12:57:34.651Z,14.07
2023-03-26T13:00:38.158Z,14.03
2023-03-26T13:03:32.871Z,13.97
2023-03-26T13:06:59.298Z,13.88
2023-03-26T13:09:23.418Z,13.85
2023-03-26T13:12:26.007Z,13.77
2023-03-26T13:15:06.987Z,13.64
2023-03-26T13:17:50.464Z,13.54
2023-03-26T13:20:52.880Z,13.52
2023-03-26T13:23:36.385Z,13.49
2023-03-26T13:26:29.230Z,13.44
2023-03-26T13:29:58.418Z,13.31
2023-03-26T13:33:05.249Z,13.21
2023-03-26T13:36:14.399Z,13.13
2023-03-26T13:38:59.157Z,13.00
2023-03-26T13:41:37.782Z,12.84
2023-03-26T13:44:22.823Z,12.69
2023-03-26T13:47:03.619Z,12.59
2023-03-26T13:49:41.602Z,12.51
2023-03-26T13:52:25.131Z,12.42
2023-03-26T13:55:21.121Z,12.30
2023-03-26T13:58:13.991Z,12.19
2023-03-26T14:00:57.937Z,12.19
2023-03-26T14:03:58.293Z,12.15
2023-03-26T14:06:40.274Z,12.03
2023-03-26T14:09:23.945Z,11.89
2023-03-26T14:12:21.627Z,11.72
2023-03-26T14:15:04.666Z,11.52
2023-03-26T14:17:52.187Z,11.40
2023-03-26T14:20:58.503Z,11.34
2023-03-26T14:23:41.758Z,11.28
2023-03-26T14:27:05.814Z,11.18
2023-03-26T14:30:02.942Z,11.07
2023-03-26T14:32:56.364Z,10.93
2023-03-26T14:36:02.881Z,10.80
2023-03-26T14:38:52.442Z,10.70
2023-03-26T14:41:54.551Z,10.62
2023-03-26T14:44:52.160Z,10.55
2023-03-26T14:47:26.947Z,10.54
2023-03-26T14:50:40.894Z,10.50
2023-03-26T14:53:30.225Z,10.44
2023-03-26T14:56:10.464Z,10.37
2023-03-26T14:59:26.274Z,10.31
2023-03-26T15:02:19.084Z,10.29
2023-03-26T15:05:30.420Z,10.26
2023-03-26T15:08:58.915Z,10.27
2023-03-26T15:12:12.141Z,10.22
2023-03-26T15:15:26.637Z,10.15
2023-03-26T15:18:16.710Z,10.07
2023-03-26T15:21:09.214Z,10.00
2023-03-26T15:24:28.024Z,9.91
2023-03-26T15:27:38.331Z,9.81
2023-03-26T15:30:45.040Z,9.75
2023-03-26T15:34:00.908Z,9.74
2023-03-26T15:36:53.879Z,9.71
2023-03-26T15:39:59.829Z,9.70
2023-03-26T15:43:03.929Z,9.68
2023-03-26T15:45:44.396Z,9.66
2023-03-26T15:48:25.265Z,9.61
2023-03-26T15:51:22.201Z,9.59
2023-03-26T15:54:24.060Z,9.53
2023-03-26T15:57:24.163Z,9.48
2023-03-26T16:00:14.835Z,9.46
2023-03-26T16:03:14.313Z,9.44
2023-03-26T16:06:16.010Z,9.43
2023-03-26T16:09:00.794Z,9.44
2023-03-26T16:11:54.213Z,9.42
2023-03-26T16:14:48.480Z,9.41
2023-03-26T16:17:23.738Z,9.39
2023-03-26T16:20:35.341Z,9.37
2023-03-26T16:23:14.976Z,9.32
2023-03-26T16:26:10.853Z,9.30
2023-03-26T16:28:55.729Z,9.29
2023-03-26T16:31:37.571Z,9.34
2023-03-26T16:34:32.080Z,9.39
2023-03-26T16:37:09.785Z,9.42
2023-03-26T16:39:44.558Z,9.41
2023-03-26T16:42:34.296Z,9.37
2023-03-26T16:45:37.496Z,9.36
2023-03-26T16:48:27.543Z,9.33
2023-03-26T16:51:29.250Z,9.32
2023-03-26T16:54:09.881Z,9.34
2023-03-26T16:57:06.991Z,9.39
2023-03-26T17:00:32.750Z,9.45
2023-03-26T17:03:38.098Z,9.51
2023-03-26T17:06:34.844Z,9.50
2023-03-26T17:09:27.905Z,9.49
2023-03-26T17:12:45.817Z,9.46
2023-03-26T17:15:43.650Z,9.45
2023-03-26T17:18:56.448Z,9.41
2023-03-26T17:21:58.685Z,9.39
2023-03-26T17:24:57.465Z,9.34
2023-03-26T17:28:17.804Z,9.36
2023-03-26T17:31:07.968Z,9.39
2023-03-26T17:33:42.286Z,9.39
2023-03-26T17:36:18.096Z,9.37
2023-03-26T17:38:53.244Z,9.34
2023-03-26T17:41:58.919Z,9.29
2023-03-26T17:44:53.079Z,9.28
2023-03-26T17:47:49.073Z,9.28
2023-03-26T17:50:33.408Z,9.27
2023-03-26T17:53:22.730Z,9.27
2023-03-26T17:55:57.020Z,9.31
2023-03-26T17:58:35.975Z,9.43
2023-03-26T18:01:34.437Z,9.48
2023-03-26T18:04:11.390Z,9.53
2023-03-26T18:07:32.970Z,9.50
2023-03-26T18:10:35.425Z,9.43
2023-03-26T18:13:38.755Z,9.36
2023-03-26T18:16:26.553Z,9.30
2023-03-26T18:19:14.299Z,9.29
2023-03-26T18:21:52.562Z,9.25
2023-03-26T18:24:33.440Z,9.26
2023-03-26T18:27:19.856Z,9.26
2023-03-26T18:30:02.753Z,9.30
2023-03-26T18:32:36.050Z,9.36
2023-03-26T18:35:24.453Z,9.30
2023-03-26T18:38:00.327Z,9.20
2023-03-26T18:40:42.756Z,9.11
2023-03-26T18:43:32.489Z,9.07
2023-03-26T18:45:57.092Z,9.04
2023-03-26T18:48:31.287Z,9.02
2023-03-26T18:51:07.171Z,9.01
2023-03-26T18:53:57.168Z,9.04
2023-03-26T18:56:42.654Z,9.10
2023-03-26T18:59:34.123Z,9.09
2023-03-26T19:02:14.092Z,9.10
2023-03-26T19:04:49.369Z,9.10
2023-03-26T19:07:26.837Z,9.13
2023-03-26T19:10:01.590Z,9.12
2023-03-26T19:12:36.992Z,9.14
2023-03-26T19:15:18.461Z,9.15
2023-03-26T19:17:56.981Z,9.17
2023-03-26T19:20:34.688Z,9.17
2023-03-26T19:23:09.224Z,9.20
2023-03-26T19:25:55.004Z,9.27
2023-03-26T19:28:33.726Z,9.32
2023-03-26T19:31:26.035Z,9.38
2023-03-26T19:34:16.021Z,9.43
2023-03-26T19:37:04.523Z,9.47
2023-03-26T19:39:44.794Z,9.44
2023-03-26T19:42:43.784Z,9.44
2023-03-26T19:45:11.222Z,9.44
2023-03-26T19:47:50.090Z,9.43
2023-03-26T19:50:30.770Z,9.44
2023-03-26T19:53:25.231Z,9.40
2023-03-26T19:56:13.594Z,9.36
2023-03-26T19:58:46.755Z,9.36
2023-03-26T20:01:28.412Z,9.39
2023-03-26T20:04:07.637Z,9.36
2023-03-26T20:06:44.099Z,9.33
2023-03-26T20:09:16.808Z,9.34
2023-03-26T20:11:50.639Z,9.35
2023-03-26T20:14:24.800Z,9.33
2023-03-26T20:16:57.354Z,9.28
2023-03-26T20:19:30.891Z,9.25
2023-03-26T20:22:06.254Z,9.25
2023-03-26T20:24:41.694Z,9.23
2023-03-26T20:27:16.533Z,9.23
2023-03-26T20:29:49.786Z,9.20
2023-03-26T20:32:26.971Z,9.21
2023-03-26T20:34:59.223Z,9.23
2023-03-26T20:37:33.536Z,9.25
2023-03-26T20:40:07.208Z,9.26
2023-03-26T20:42:42.594Z,9.26
2023-03-26T20:45:22.865Z,9.23
2023-03-26T20:47:57.824Z,9.23
2023-03-26T20:50:31.657Z,9.21
2023-03-26T20:53:05.726Z,9.20
2023-03-26T20:55:38.950Z,9.18
2023-03-26T20:58:15.559Z,9.19
2023-03-26T21:00:51.121Z,9.20
2023-03-26T21:03:24.341Z,9.22
2023-03-26T21:06:03.717Z,9.23
2023-03-26T21:08:38.180Z,9.23
2023-03-26T21:11:57.425Z,9.24
2023-03-26T21:14:44.562Z,9.25
2023-03-26T21:17:20.954Z,9.19
2023-03-26T21:19:55.031Z,9.19
2023-03-26T21:23:07.826Z,9.14
2023-03-26T21:25:52.922Z,9.08
2023-03-26T21:28:42.362Z,9.03
2023-03-26T21:31:23.394Z,9.02
2023-03-26T21:33:57.138Z,9.02
2023-03-26T21:36:30.777Z,9.01
2023-03-26T21:39:05.394Z,9.02
2023-03-26T21:42:05.166Z,9.00
2023-03-26T21:44:26.791Z,8.94
2023-03-26T21:46:59.872Z,8.85
2023-03-26T21:49:34.047Z,8.83
2023-03-26T21:52:07.460Z,8.81
2023-03-26T21:54:42.016Z,8.79
2023-03-26T21:57:34.443Z,8.81
2023-03-26T22:00:19.057Z,8.78
2023-03-26T22:03:26.759Z,8.75
2023-03-26T22:06:14.920Z,8.74
2023-03-26T22:08:49.544Z,8.67
2023-03-26T22:11:22.561Z,8.66
2023-03-26T22:13:57.137Z,8.67
2023-03-26T22:16:28.942Z,8.69
2023-03-26T22:19:02.144Z,8.73
2023-03-26T22:21:36.162Z,8.73
2023-03-26T22:24:10.419Z,8.73
2023-03-26T22:26:43.490Z,8.72
2023-03-26T22:29:17.134Z,8.71
2023-03-26T22:31:49.814Z,8.71
2023-03-26T22:34:23.993Z,8.69
2023-03-26T22:36:57.520Z,8.73
2023-03-26T22:39:31.486Z,8.74
2023-03-26T22:42:05.318Z,8.74
2023-03-26T22:44:38.869Z,8.74
2023-03-26T22:47:13.362Z,8.75
2023-03-26T22:49:46.911Z,8.73
2023-03-26T22:52:20.346Z,8.71
2023-03-26T22:54:53.310Z,8.71
2023-03-26T22:57:27.770Z,8.76
2023-03-26T23:00:02.459Z,8.78
2023-03-26T23:02:36.804Z,8.80
2023-03-26T23:05:11.654Z,8.78
2023-03-26T23:07:46.462Z,8.74
2023-03-26T23:10:19.687Z,8.70
2023-03-26T23:12:54.572Z,8.68
2023-03-26T23:15:28.008Z,8.68
2023-03-26T23:18:02.275Z,8.68
2023-03-26T23:20:36.354Z,8.70
2023-03-26T23:23:09.556Z,8.70
2023-03-26T23:25:45.569Z,8.68
2023-03-26T23:28:20.022Z,8.68
2023-03-26T23:30:55.610Z,8.65
2023-03-26T23:33:35.482Z,8.68
2023-03-26T23:36:11.032Z,8.71
2023-03-26T23:38:47.027Z,8.69
2023-03-26T23:41:25.538Z,8.67
2023-03-26T23:43:58.221Z,8.64
2023-03-26T23:46:33.212Z,8.64
2023-03-26T23:49:06.319Z,8.66
2023-03-26T23:51:39.508Z,8.64
2023-03-26T23:54:13.058Z,8.62
2023-03-26T23:56:46.272Z,8.64
2023-03-26T23:59:19.491Z,8.69
